Time;durP1;ratioP1;P1;durP2;ratioP2;P2;SDS_P1;SDS_P2;PMS_P1;PMS_P2;Temp;Humidity;BMP_temperature;BMP_pressure;BME280_temperature;BME280_humidity;BME280_pressure;Samples;Min_cycle;Max_cycle;Signal;HPM_P1;HPM_P2
2022/12/22 03:28:08;;;;;;;26.98;19.90;;;;;;;13.46;67.13;100119.09;5073059;28;20068;-67
2022/12/22 03:30:35;;;;;;;53.78;25.77;;;;;;;13.45;66.88;100116.53;5073006;28;20045;-68
2022/12/22 03:33:01;;;;;;;22.38;18.52;;;;;;;13.44;67.28;100113.00;5090592;28;20478;-67
2022/12/22 03:35:28;;;;;;;35.83;22.17;;;;;;;13.44;66.91;100107.59;5092855;28;20048;-68
2022/12/22 03:37:54;;;;;;;39.50;20.98;;;;;;;13.47;67.00;100107.31;5093082;28;20059;-68
2022/12/22 03:40:21;;;;;;;52.20;25.52;;;;;;;13.51;66.70;100102.47;5082576;28;20067;-68
2022/12/22 03:48:17;;;;;;;31.20;20.23;;;;;;;13.54;66.58;100097.63;5085099;28;20126;-68
2022/12/22 03:50:44;;;;;;;28.15;20.67;;;;;;;13.55;66.74;100101.19;5096465;28;20119;-68
2022/12/22 03:53:11;;;;;;;59.03;23.00;;;;;;;13.54;66.51;100097.63;5096251;28;20119;-67
2022/12/22 03:55:38;;;;;;;77.40;24.05;;;;;;;13.54;66.74;100091.38;5096380;28;20109;-68
2022/12/22 03:58:04;;;;;;;62.50;20.67;;;;;;;13.55;66.60;100096.63;5096816;28;20376;-67
2022/12/22 04:00:31;;;;;;;58.85;19.70;;;;;;;13.55;66.45;100096.63;5096686;28;20044;-68
2022/12/22 04:02:58;;;;;;;103.45;26.70;;;;;;;13.56;66.70;100097.47;5096047;28;20069;-67
2022/12/22 04:05:25;;;;;;;31.83;20.58;;;;;;;13.55;66.65;100088.53;5095498;28;20044;-67
2022/12/22 04:07:51;;;;;;;31.15;19.95;;;;;;;13.56;66.79;100084.00;5096191;28;20081;-67
2022/12/22 04:13:03;;;;;;;102.75;21.88;;;;;;;13.56;66.67;100073.19;5095160;28;20366;-68
2022/12/22 04:15:31;;;;;;;170.13;24.42;;;;;;;13.54;66.62;100070.66;5096136;28;20445;-67
2022/12/22 04:17:58;;;;;;;38.10;16.42;;;;;;;13.52;66.75;100066.41;5096055;28;20242;-67
2022/12/22 04:20:26;;;;;;;34.13;16.10;;;;;;;13.50;66.57;100063.84;5095793;28;20040;-67
2022/12/22 04:22:53;;;;;;;98.45;22.65;;;;;;;13.49;66.58;100058.59;5095108;28;20044;-67
2022/12/22 04:25:20;;;;;;;340.52;54.75;;;;;;;13.48;66.41;100062.28;5095241;28;20040;-67
2022/12/22 04:27:47;;;;;;;82.78;19.00;;;;;;;13.46;66.66;100056.19;5095871;28;20044;-67
2022/12/22 04:30:14;;;;;;;107.63;26.98;;;;;;;13.45;66.37;100051.81;5093402;28;20051;-68
2022/12/22 04:32:40;;;;;;;29.45;13.35;;;;;;;13.44;66.66;100050.94;5095306;28;20105;-67
2022/12/22 04:35:08;;;;;;;62.72;19.17;;;;;;;13.40;66.65;100048.69;5096202;28;20040;-67
2022/12/22 04:37:35;;;;;;;70.93;20.27;;;;;;;13.38;66.15;100045.25;5095732;28;20074;-68
2022/12/22 04:40:02;;;;;;;57.40;18.02;;;;;;;13.36;66.55;100050.81;5095519;28;20101;-67
2022/12/22 04:42:29;;;;;;;331.83;55.40;;;;;;;13.36;66.52;100058.88;5095320;28;20094;-68
2022/12/22 04:44:55;;;;;;;133.43;23.00;;;;;;;13.34;66.35;100060.88;5094781;28;20063;-67
2022/12/22 04:47:22;;;;;;;70.40;16.85;;;;;;;13.30;66.45;100064.88;5095417;28;20051;-67
2022/12/22 04:49:48;;;;;;;142.10;28.23;;;;;;;13.27;66.35;100057.91;5095223;28;20448;-67
2022/12/22 04:52:15;;;;;;;66.20;18.20;;;;;;;13.27;66.19;100068.72;5085824;28;20033;-67
2022/12/22 04:54:41;;;;;;;44.25;17.77;;;;;;;13.28;66.38;100069.56;5074127;28;20047;-67
2022/12/22 04:57:08;;;;;;;21.55;14.93;;;;;;;13.29;66.43;100076.66;5075009;28;20048;-67
2022/12/22 04:59:34;;;;;;;180.48;42.95;;;;;;;13.30;66.29;100087.28;5078948;28;20032;-68
2022/12/22 05:02:01;;;;;;;92.45;30.15;;;;;;;13.28;66.37;100081.19;5089080;28;20106;-70
2022/12/22 05:04:27;;;;;;;54.90;20.05;;;;;;;13.28;66.38;100083.88;5094970;28;20047;-70
2022/12/22 05:06:54;;;;;;;133.38;34.65;;;;;;;13.25;66.06;100083.31;5094764;28;20138;-69
2022/12/22 05:09:20;;;;;;;27.98;17.80;;;;;;;13.26;65.91;100087.72;5094975;28;20043;-70
2022/12/22 05:11:47;;;;;;;44.50;16.75;;;;;;;13.26;66.11;100079.63;5094683;28;20048;-70
2022/12/22 05:14:14;;;;;;;62.90;19.50;;;;;;;13.24;66.28;100065.44;5094874;28;20036;-70
2022/12/22 05:16:40;;;;;;;206.82;29.63;;;;;;;13.22;66.30;100068.28;5093313;28;20137;-69
2022/12/22 05:19:07;;;;;;;203.25;32.13;;;;;;;13.20;66.08;100066.72;5094536;28;20032;-70
2022/12/22 05:21:33;;;;;;;101.68;30.10;;;;;;;13.16;66.05;100068.00;5094734;28;20040;-70
2022/12/22 05:24:00;;;;;;;125.97;30.45;;;;;;;13.16;66.44;100076.06;5094797;28;20119;-70
2022/12/22 05:26:26;;;;;;;31.52;19.17;;;;;;;13.17;66.19;100070.56;5094847;28;20045;-69
2022/12/22 05:28:53;;;;;;;38.75;20.02;;;;;;;13.19;66.31;100071.28;5094749;28;20043;-69
2022/12/22 05:31:22;;;;;;;50.65;22.83;;;;;;;13.18;66.54;100071.41;5093512;28;20050;-69
2022/12/22 05:33:49;;;;;;;171.13;36.03;;;;;;;13.20;66.34;100069.44;5094291;28;20592;-70
2022/12/22 05:36:17;;;;;;;408.15;62.15;;;;;;;13.18;66.12;100077.66;5094961;28;20455;-70
2022/12/22 05:38:44;;;;;;;121.82;32.15;;;;;;;13.16;66.33;100081.47;5094529;28;20122;-70
2022/12/22 05:41:11;;;;;;;251.98;47.42;;;;;;;13.14;66.36;100078.91;5093076;28;20052;-71
2022/12/22 05:43:38;;;;;;;200.60;37.47;;;;;;;13.11;66.55;100087.28;5092590;28;20040;-70
2022/12/22 05:46:07;;;;;;;297.17;52.85;;;;;;;13.11;66.14;100081.91;5078910;28;20044;-70
2022/12/22 05:48:35;;;;;;;290.60;50.70;;;;;;;13.11;66.25;100090.00;5094281;28;20044;-70
2022/12/22 05:51:06;;;;;;;209.75;43.47;;;;;;;13.11;66.13;100094.53;5094522;28;20036;-70
2022/12/22 05:53:33;;;;;;;48.63;22.35;;;;;;;13.11;66.30;100099.91;5094174;28;20050;-71
2022/12/22 05:56:00;;;;;;;97.93;27.60;;;;;;;13.12;66.34;100105.16;5094181;28;20440;-70
2022/12/22 05:58:26;;;;;;;105.47;26.10;;;;;;;13.12;66.25;100098.94;5087085;28;20045;-70
2022/12/22 06:00:58;;;;;;;206.65;39.20;;;;;;;13.12;66.61;100096.22;5073928;28;20040;-67
2022/12/22 06:03:25;;;;;;;75.88;22.55;;;;;;;13.11;66.57;100095.38;5073496;28;20044;-67
2022/12/22 06:05:53;;;;;;;249.50;47.78;;;;;;;13.13;66.37;100097.94;5086842;28;20043;-67
2022/12/22 06:08:20;;;;;;;202.02;40.63;;;;;;;13.12;66.41;100097.06;5093967;28;20040;-68
2022/12/22 06:10:47;;;;;;;156.63;37.90;;;;;;;13.14;66.73;100105.03;5094136;28;20050;-68
2022/12/22 06:13:13;;;;;;;269.55;44.03;;;;;;;13.15;66.61;100118.38;5092773;28;20510;-67
2022/12/22 06:15:40;;;;;;;144.60;35.58;;;;;;;13.15;66.33;100122.91;5093605;28;20413;-68
2022/12/22 06:18:07;;;;;;;139.30;29.25;;;;;;;13.17;66.41;100131.72;5093689;28;20043;-67
2022/12/22 06:20:33;;;;;;;69.20;24.77;;;;;;;13.17;66.50;100140.66;5093435;28;20044;-67
2022/12/22 06:23:00;;;;;;;96.30;29.63;;;;;;;13.17;66.73;100129.88;5093021;28;20075;-67
2022/12/22 06:25:26;;;;;;;132.00;36.17;;;;;;;13.17;66.41;100139.81;5093790;28;20490;-67
2022/12/22 06:27:53;;;;;;;31.58;17.27;;;;;;;13.18;66.41;100146.91;5093037;28;20075;-67
2022/12/22 06:30:19;;;;;;;194.63;40.33;;;;;;;13.20;66.60;100150.31;5093765;28;20567;-67
2022/12/22 06:32:49;;;;;;;39.97;18.88;;;;;;;13.18;66.69;100155.84;5090519;28;20482;-68
2022/12/22 06:35:16;;;;;;;150.75;34.80;;;;;;;13.20;66.29;100151.16;5073444;28;20094;-68
2022/12/22 06:37:43;;;;;;;88.47;27.85;;;;;;;13.20;66.58;100164.66;5073515;28;20044;-68
2022/12/22 06:40:10;;;;;;;141.95;36.85;;;;;;;13.20;66.47;100164.66;5073118;28;20182;-68
2022/12/22 06:45:27;;;;;;;35.85;19.63;;;;;;;13.18;66.78;100177.44;5093480;28;20152;-67
2022/12/22 06:47:54;;;;;;;40.40;19.73;;;;;;;13.16;66.74;100173.13;5092801;28;20055;-67
2022/12/22 06:50:20;;;;;;;40.40;21.45;;;;;;;13.14;66.84;100175.97;5092482;28;20040;-67
2022/12/22 06:52:47;;;;;;;44.97;21.40;;;;;;;13.15;66.47;100180.38;5087484;28;20390;-66
2022/12/22 06:55:14;;;;;;;32.75;17.95;;;;;;;13.16;66.64;100192.84;5078135;28;20043;-67
2022/12/22 06:57:40;;;;;;;45.95;20.98;;;;;;;13.16;67.13;100195.56;5093389;28;20169;-68
2022/12/22 07:00:07;;;;;;;42.97;21.08;;;;;;;13.17;66.73;100191.91;5093193;28;20101;-69
2022/12/22 07:02:34;;;;;;;35.25;19.83;;;;;;;13.19;66.86;100203.38;5091783;28;20050;-69
2022/12/22 07:05:01;;;;;;;50.10;21.67;;;;;;;13.20;66.90;100204.25;5093165;28;20050;-69
2022/12/22 07:07:27;;;;;;;53.63;23.27;;;;;;;13.20;67.18;100202.41;5092572;28;20032;-69
2022/12/22 07:09:55;;;;;;;48.53;20.80;;;;;;;13.22;67.22;100208.50;5091631;28;20440;-68
2022/12/22 07:12:22;;;;;;;54.75;24.00;;;;;;;13.25;67.10;100220.84;5091451;28;20044;-68
2022/12/22 07:14:49;;;;;;;70.75;26.88;;;;;;;13.27;67.36;100233.19;5091579;28;20079;-69
2022/12/22 07:17:16;;;;;;;71.85;28.95;;;;;;;13.26;67.11;100234.19;5092329;28;20048;-69
2022/12/22 07:19:42;;;;;;;77.80;27.33;;;;;;;13.28;67.27;100243.00;5095386;28;20089;-69
2022/12/22 07:22:09;;;;;;;57.80;24.77;;;;;;;13.30;67.24;100245.53;5095747;28;20056;-68
2022/12/22 07:24:35;;;;;;;88.35;32.42;;;;;;;13.29;67.23;100254.63;5097191;28;20115;-69
2022/12/22 07:27:02;;;;;;;65.65;27.60;;;;;;;13.29;67.00;100250.09;5097184;28;20036;-69
2022/12/22 07:29:29;;;;;;;74.35;30.60;;;;;;;13.29;67.26;100252.78;5096864;28;20560;-69
2022/12/22 07:31:55;;;;;;;64.05;27.65;;;;;;;13.29;67.30;100255.47;5096752;28;20047;-69
2022/12/22 07:34:22;;;;;;;69.30;30.00;;;;;;;13.28;67.07;100253.78;5096640;28;20097;-68
2022/12/22 07:36:48;;;;;;;74.50;30.00;;;;;;;13.28;67.00;100251.09;5095737;28;20048;-65
2022/12/22 07:39:15;;;;;;;57.05;26.48;;;;;;;13.28;67.28;100248.38;5095732;28;20044;-67
2022/12/22 07:44:27;;;;;;;52.58;26.65;;;;;;;13.32;67.29;100263.28;5094479;28;20044;-67
2022/12/22 07:46:53;;;;;;;67.18;30.58;;;;;;;13.34;67.34;100268.53;5096359;28;20063;-67
2022/12/22 07:52:05;;;;;;;63.72;28.05;;;;;;;13.40;67.15;100259.91;5095637;28;20052;-66
2022/12/22 07:54:33;;;;;;;58.55;26.65;;;;;;;13.41;67.11;100258.06;5096942;28;20363;-67
2022/12/22 07:57:07;;;;;;;46.17;24.17;;;;;;;13.43;67.11;100264.19;5096425;28;20097;-67
2022/12/22 07:59:33;;;;;;;60.60;28.42;;;;;;;13.46;66.94;100274.69;5095522;28;20056;-67
2022/12/22 08:02:00;;;;;;;54.33;26.48;;;;;;;13.46;67.21;100280.09;5095226;28;20048;-67
2022/12/22 08:04:27;;;;;;;47.10;24.15;;;;;;;13.46;67.17;100285.47;5096200;28;20127;-67
2022/12/22 08:06:53;;;;;;;49.55;24.65;;;;;;;13.49;67.32;100291.44;5096290;28;20386;-67
2022/12/22 08:09:21;;;;;;;69.15;28.50;;;;;;;13.49;66.94;100295.97;5096329;28;20060;-67
2022/12/22 08:11:49;;;;;;;50.60;24.95;;;;;;;13.48;67.17;100310.47;5096035;28;20032;-67
2022/12/22 08:14:15;;;;;;;63.75;27.40;;;;;;;13.45;66.64;100314.28;5095313;28;20118;-67
2022/12/22 08:16:42;;;;;;;60.67;28.65;;;;;;;13.42;66.60;100333.47;5094922;28;20119;-67
2022/12/22 08:19:08;;;;;;;63.90;29.77;;;;;;;13.37;66.80;100338.38;5103958;28;20049;-68
2022/12/22 08:21:35;;;;;;;66.45;29.35;;;;;;;13.33;66.78;100348.59;5116051;28;20040;-69
2022/12/22 08:24:01;;;;;;;66.00;30.63;;;;;;;13.31;66.60;100352.44;5104226;28;20494;-67
2022/12/22 08:26:40;;;;;;;76.65;30.70;;;;;;;13.26;66.75;100363.63;5094942;28;20040;-66
2022/12/22 08:29:14;;;;;;;71.65;30.73;;;;;;;13.21;66.75;100368.59;5092002;28;20045;-68
2022/12/22 08:31:40;;;;;;;70.28;29.75;;;;;;;13.20;66.62;100369.56;5092158;28;20040;-68
2022/12/22 08:34:11;;;;;;;81.03;30.77;;;;;;;13.18;66.87;100374.25;5092671;28;20494;-67
2022/12/22 08:36:43;;;;;;;67.50;30.65;;;;;;;13.17;66.76;100375.25;5092147;28;20136;-67
2022/12/22 08:39:10;;;;;;;86.00;34.25;;;;;;;13.17;66.67;100377.09;5092707;28;20478;-67
2022/12/22 08:41:48;;;;;;;72.70;31.60;;;;;;;13.16;66.86;100381.59;5094449;28;20040;-67
2022/12/22 08:44:24;;;;;;;72.55;30.13;;;;;;;13.19;67.14;100378.66;5095534;28;20040;-68
2022/12/22 08:46:52;;;;;;;79.60;31.42;;;;;;;13.20;66.68;100380.34;5095027;28;20044;-67
2022/12/22 08:49:19;;;;;;;76.60;31.17;;;;;;;13.23;66.68;100395.41;5094135;28;20482;-67
2022/12/22 08:51:46;;;;;;;71.32;30.52;;;;;;;13.22;66.70;100396.41;5095011;28;20036;-67
2022/12/22 08:54:13;;;;;;;58.67;27.38;;;;;;;13.21;66.67;100402.78;5094966;28;20375;-67
2022/12/22 08:56:40;;;;;;;60.40;27.77;;;;;;;13.19;66.87;100413.69;5089529;28;20052;-67
2022/12/22 08:59:08;;;;;;;52.95;24.35;;;;;;;13.21;66.72;100417.13;5079607;28;20044;-68
2022/12/22 09:01:37;;;;;;;45.00;23.48;;;;;;;13.20;66.85;100415.41;5073364;28;20045;-67
2022/12/22 09:04:05;;;;;;;49.75;24.73;;;;;;;13.20;66.83;100433.44;5076069;28;20040;-67
2022/12/22 09:06:32;;;;;;;46.75;24.60;;;;;;;13.19;66.34;100435.28;5105124;28;20050;-68
2022/12/22 09:09:09;;;;;;;46.67;24.42;;;;;;;13.21;66.30;100444.09;5098474;28;20051;-67
2022/12/22 09:11:36;;;;;;;59.05;27.67;;;;;;;13.21;66.52;100444.09;5090054;28;20516;-68
2022/12/22 09:14:04;;;;;;;63.50;27.42;;;;;;;13.20;66.76;100444.22;5094671;28;20054;-67
2022/12/22 09:16:32;;;;;;;61.95;27.98;;;;;;;13.18;66.55;100440.81;5094551;28;20124;-68
2022/12/22 09:18:59;;;;;;;54.05;27.80;;;;;;;13.17;66.17;100448.03;5091832;28;20055;-67
2022/12/22 09:21:26;;;;;;;51.55;26.42;;;;;;;13.18;66.26;100457.84;5095604;28;20044;-72
2022/12/22 09:23:54;;;;;;;49.17;24.08;;;;;;;13.18;66.22;100467.78;5114534;28;20574;-67
2022/12/22 09:26:22;;;;;;;52.35;25.63;;;;;;;13.17;66.40;100466.91;5102277;27;20051;-68
2022/12/22 09:28:49;;;;;;;52.50;25.45;;;;;;;13.15;66.27;100471.56;5095533;28;20379;-68
2022/12/22 09:31:18;;;;;;;55.00;26.33;;;;;;;13.14;66.10;100471.69;5094024;28;20048;-68
2022/12/22 09:33:45;;;;;;;51.55;24.58;;;;;;;13.14;66.03;100472.53;5094132;28;20044;-67
2022/12/22 09:36:18;;;;;;;47.58;23.42;;;;;;;13.13;66.22;100476.22;5093281;28;20044;-68
2022/12/22 09:38:45;;;;;;;52.42;25.13;;;;;;;13.12;66.03;100485.31;5094408;28;20123;-74
2022/12/22 09:41:19;;;;;;;51.17;25.38;;;;;;;13.10;66.05;100491.81;5080869;28;20510;-68
2022/12/22 09:43:47;;;;;;;44.42;23.98;;;;;;;13.09;66.09;100485.56;5082379;28;20112;-68
2022/12/22 09:46:29;;;;;;;47.72;23.77;;;;;;;13.09;65.92;100484.72;5073963;28;20048;-68
2022/12/22 09:48:56;;;;;;;55.35;24.27;;;;;;;13.10;65.95;100489.13;5073880;28;20132;-68
2022/12/22 09:51:23;;;;;;;52.17;24.88;;;;;;;13.10;65.92;100492.69;5074971;28;20048;-68
2022/12/22 09:54:00;;;;;;;50.03;24.60;;;;;;;13.12;65.91;100489.84;5073591;28;20047;-68
2022/12/22 09:56:28;;;;;;;46.17;23.42;;;;;;;13.16;66.19;100496.69;5073609;28;20049;-68
2022/12/22 09:58:55;;;;;;;43.50;22.27;;;;;;;13.20;66.24;100493.59;5073636;28;20044;-68
2022/12/22 10:01:34;;;;;;;42.45;23.58;;;;;;;13.22;66.29;100501.56;5087672;28;20153;-68
2022/12/22 10:04:28;;;;;;;47.10;23.85;;;;;;;13.30;66.27;100501.75;5093705;28;20047;-68
2022/12/22 10:07:11;;;;;;;41.38;23.58;;;;;;;13.39;66.39;100508.19;5079261;28;20044;-68
2022/12/22 10:09:42;;;;;;;46.83;23.73;;;;;;;13.45;66.29;100496.88;5073266;28;20052;-65
2022/12/22 10:12:23;;;;;;;40.03;23.85;;;;;;;13.51;66.56;100502.56;5072287;28;20131;-77
2022/12/22 10:14:52;;;;;;;42.22;23.65;;;;;;;13.59;66.28;100508.16;5088715;27;20506;-68
2022/12/22 10:17:22;;;;;;;42.60;22.67;;;;;;;13.64;66.25;100499.63;5093584;28;20543;-68
2022/12/22 10:19:52;;;;;;;41.03;23.60;;;;;;;13.68;66.00;100509.16;5093031;28;20036;-70
2022/12/22 10:22:37;;;;;;;41.95;23.52;;;;;;;13.74;65.91;100496.97;5091958;28;20054;-71
2022/12/22 10:25:05;;;;;;;39.65;23.45;;;;;;;13.79;65.83;100502.81;5071838;28;20043;-82
2022/12/22 10:27:35;;;;;;;39.63;22.83;;;;;;;13.85;65.76;100510.34;5073320;28;20433;-71
2022/12/22 10:30:26;;;;;;;43.25;24.42;;;;;;;13.91;66.01;100512.50;5090459;28;20225;-70
2022/12/22 10:33:08;;;;;;;38.42;23.00;;;;;;;13.96;66.18;100513.78;5090562;28;20043;-70
2022/12/22 10:35:44;;;;;;;44.53;23.25;;;;;;;14.04;65.97;100520.34;5092919;28;20044;-80
2022/12/22 10:38:19;;;;;;;42.80;23.25;;;;;;;14.09;65.76;100526.19;5093371;28;20068;-72
2022/12/22 10:40:51;;;;;;;39.30;21.23;;;;;;;14.15;66.09;100528.34;5091208;28;20410;-72
2022/12/22 10:43:28;;;;;;;34.70;20.58;;;;;;;14.20;65.71;100528.78;5090903;28;20040;-72
2022/12/22 10:45:57;;;;;;;33.72;20.00;;;;;;;14.22;65.70;100524.94;5092128;28;20106;-74
2022/12/22 10:48:29;;;;;;;44.08;27.15;;;;;;;14.26;65.41;100531.78;5091110;28;20044;-72
2022/12/22 10:50:58;;;;;;;40.72;23.38;;;;;;;14.30;65.37;100529.66;5092063;28;20032;-73
2022/12/22 10:53:54;;;;;;;37.10;25.83;;;;;;;14.26;64.81;100537.19;5092890;28;20402;-80
2022/12/22 10:56:27;;;;;;;37.17;22.35;;;;;;;14.24;65.00;100538.31;5096089;28;20040;-73
2022/12/22 10:59:00;;;;;;;34.05;21.10;;;;;;;14.19;64.83;100536.03;5095970;28;20044;-72
2022/12/22 11:01:33;;;;;;;34.33;21.75;;;;;;;14.15;64.87;100534.59;5095401;28;20517;-74
2022/12/22 11:04:15;;;;;;;34.63;23.77;;;;;;;14.14;64.80;100537.44;5086517;28;20056;-74
2022/12/22 11:06:43;;;;;;;37.50;24.55;;;;;;;14.14;64.32;100540.16;5076336;28;20511;-72
2022/12/22 11:09:10;;;;;;;40.42;26.77;;;;;;;14.11;64.56;100537.69;5076857;28;20067;-72
2022/12/22 11:12:16;;;;;;;37.38;24.60;;;;;;;14.12;64.37;100547.50;5076308;28;20521;-73
2022/12/22 11:14:51;;;;;;;37.55;25.88;;;;;;;14.10;64.24;100554.88;5092134;28;20124;-72
2022/12/22 11:17:37;;;;;;;34.22;23.08;;;;;;;14.06;64.23;100556.16;5096939;28;20579;-71
2022/12/22 11:20:27;;;;;;;;;;;;;;;14.04;63.94;100564.41;5097131;28;20122;-70
2022/12/22 11:23:07;;;;;;;32.28;21.63;;;;;;;14.00;63.85;100565.66;5095876;28;20370;-71
2022/12/22 11:26:12;;;;;;;30.60;21.35;;;;;;;13.90;64.01;100562.94;5094563;28;20466;-71
2022/12/22 11:28:47;;;;;;;26.63;17.75;;;;;;;13.91;63.96;100558.38;5096764;28;20483;-70
2022/12/22 11:31:31;;;;;;;30.17;19.10;;;;;;;13.92;63.93;100571.75;5081210;28;20774;-70
2022/12/22 11:34:22;;;;;;;26.10;17.23;;;;;;;13.99;63.99;100577.44;5076118;28;20045;-70
2022/12/22 11:37:12;;;;;;;27.92;17.98;;;;;;;14.02;64.20;100573.63;5075167;28;20047;-70
2022/12/22 11:39:51;;;;;;;29.40;17.63;;;;;;;14.06;64.26;100577.75;5076120;28;20037;-70
2022/12/22 11:42:27;;;;;;;;;;;;;;;14.13;63.91;100578.94;5078446;28;20103;-70
2022/12/22 11:45:17;;;;;;;25.23;16.17;;;;;;;14.17;63.77;100581.22;5076146;28;20019;-70
2022/12/22 11:48:01;;;;;;;26.60;15.40;;;;;;;14.19;63.77;100576.53;5074810;28;20514;-71
2022/12/22 11:50:37;;;;;;;22.80;12.57;;;;;;;14.19;63.85;100575.69;5075937;28;20048;-71
2022/12/22 11:53:32;;;;;;;22.48;13.05;;;;;;;14.23;63.52;100574.41;5075896;28;20040;-71
2022/12/22 11:56:08;;;;;;;;;;;;;;;14.26;63.75;100579.53;5076363;28;20116;-71
2022/12/22 11:58:59;;;;;;;21.33;12.52;;;;;;;14.31;63.54;100578.13;5076154;28;20333;-70
2022/12/22 12:01:40;;;;;;;17.77;12.05;;;;;;;14.29;63.44;100585.53;5086162;28;20044;-71
2022/12/22 12:04:25;;;;;;;17.80;10.60;;;;;;;14.28;63.31;100583.81;5095865;28;20490;-72
2022/12/22 12:07:04;;;;;;;21.67;13.38;;;;;;;14.25;62.92;100584.09;5096001;28;20040;-72
2022/12/22 12:09:30;;;;;;;21.88;13.48;;;;;;;14.26;63.18;100576.84;5095842;28;20058;-72
2022/12/22 12:12:10;;;;;;;22.33;13.45;;;;;;;14.26;62.93;100576.84;5087325;28;20081;-71
2022/12/22 12:15:03;;;;;;;22.45;13.25;;;;;;;14.25;62.72;100570.59;5075598;28;20036;-71
2022/12/22 12:17:41;;;;;;;22.15;13.88;;;;;;;14.28;62.80;100570.31;5059140;28;20051;-72
2022/12/22 12:20:07;;;;;;;19.25;14.05;;;;;;;14.30;62.82;100567.47;5076420;28;20044;-71
2022/12/22 12:22:50;;;;;;;24.30;17.83;;;;;;;14.30;62.76;100565.63;5094481;28;20035;-71
2022/12/22 12:25:27;;;;;;;26.95;18.67;;;;;;;14.28;62.68;100570.31;5082397;28;20065;-72
2022/12/22 12:28:35;;;;;;;28.27;19.40;;;;;;;14.24;62.56;100559.91;5074067;28;20044;-71
2022/12/22 12:31:06;;;;;;;28.73;19.50;;;;;;;14.24;62.56;100549.13;5075231;28;20086;-71
2022/12/22 12:33:44;;;;;;;28.38;20.08;;;;;;;14.19;62.36;100556.78;5074996;28;20048;-71
2022/12/22 12:36:26;;;;;;;31.05;21.13;;;;;;;14.15;61.99;100545.41;5094377;28;20101;-72
2022/12/22 12:38:57;;;;;;;25.92;19.92;;;;;;;14.14;62.10;100546.41;5095791;28;20044;-71
2022/12/22 12:41:56;;;;;;;28.25;21.10;;;;;;;14.13;61.88;100549.25;5095368;28;20376;-72
2022/12/22 12:44:30;;;;;;;26.55;20.50;;;;;;;14.08;61.91;100543.38;5090143;28;20037;-72
2022/12/22 12:47:05;;;;;;;32.00;22.45;;;;;;;14.08;61.88;100546.91;5073761;28;20033;-71
2022/12/22 12:49:35;;;;;;;28.70;22.80;;;;;;;14.09;61.95;100550.47;5073635;28;20043;-73
2022/12/22 12:52:07;;;;;;;31.50;23.00;;;;;;;14.09;62.22;100554.03;5074767;28;20044;-72
2022/12/22 12:54:46;;;;;;;35.10;23.65;;;;;;;14.08;62.12;100546.06;5081993;28;20098;-71
2022/12/22 12:57:28;;;;;;;32.85;23.20;;;;;;;14.05;61.88;100532.84;5080586;28;20036;-71
2022/12/22 12:59:58;;;;;;;32.97;23.27;;;;;;;14.05;62.13;100533.69;5074533;28;20041;-71
2022/12/22 13:02:32;;;;;;;32.00;23.92;;;;;;;14.07;61.88;100547.06;5074441;28;20514;-72
2022/12/22 13:05:14;;;;;;;34.05;23.33;;;;;;;14.07;62.09;100531.72;5084500;28;20032;-71
2022/12/22 13:08:10;;;;;;;33.42;23.55;;;;;;;14.09;62.02;100539.69;5094681;28;20047;-72
2022/12/22 13:10:52;;;;;;;34.88;23.45;;;;;;;14.10;61.97;100541.38;5094624;28;20486;-71
2022/12/22 13:13:21;;;;;;;31.00;22.63;;;;;;;14.06;62.23;100540.81;5094544;28;20040;-71
2022/12/22 13:16:11;;;;;;;25.48;19.42;;;;;;;14.01;62.12;100548.47;5091705;28;20129;-71
2022/12/22 13:18:48;;;;;;;25.80;17.45;;;;;;;13.98;61.91;100557.69;5094657;28;20039;-72
2022/12/22 13:21:26;;;;;;;21.80;15.25;;;;;;;13.95;62.10;100554.41;5094596;28;20044;-72
2022/12/22 13:24:18;;;;;;;20.70;14.65;;;;;;;13.91;61.95;100556.53;5093761;28;20078;-72
2022/12/22 13:27:00;;;;;;;19.17;13.40;;;;;;;13.88;61.75;100550.56;5094886;28;20060;-72
2022/12/22 13:29:38;;;;;;;17.95;13.23;;;;;;;13.86;61.58;100552.56;5093356;28;20047;-72
2022/12/22 13:32:20;;;;;;;19.83;14.60;;;;;;;13.85;61.50;100548.13;5092776;28;20482;-72
2022/12/22 13:35:02;;;;;;;19.58;13.57;;;;;;;13.83;61.60;100547.44;5074047;28;20037;-72
2022/12/22 13:37:52;;;;;;;17.80;13.93;;;;;;;13.82;61.51;100545.72;5073834;28;20052;-71
2022/12/22 13:40:22;;;;;;;20.13;14.38;;;;;;;13.81;61.67;100550.25;5074062;28;20494;-71
2022/12/22 13:43:03;;;;;;;18.10;14.38;;;;;;;13.83;61.43;100544.72;5078968;28;20051;-72
2022/12/22 13:45:42;;;;;;;22.73;15.65;;;;;;;13.83;61.81;100540.19;5094044;28;20036;-72
2022/12/22 13:48:29;;;;;;;21.73;15.02;;;;;;;13.86;61.61;100539.06;5094212;28;20498;-74
2022/12/22 13:51:00;;;;;;;23.52;15.73;;;;;;;13.87;61.48;100541.63;5093953;28;20097;-71
2022/12/22 13:53:33;;;;;;;20.75;15.48;;;;;;;13.85;61.76;100543.59;5091836;28;20032;-71
2022/12/22 13:56:25;;;;;;;24.60;15.48;;;;;;;13.83;61.56;100539.31;5093275;28;20147;-71
2022/12/22 13:58:58;;;;;;;20.63;15.57;;;;;;;13.81;61.49;100536.75;5093428;28;20082;-73
2022/12/22 14:01:25;;;;;;;19.80;15.30;;;;;;;13.81;61.54;100528.66;5093527;28;20081;-71
2022/12/22 14:04:01;;;;;;;25.40;16.38;;;;;;;13.82;61.78;100526.81;5093280;28;20044;-71
2022/12/22 14:06:33;;;;;;;20.48;15.40;;;;;;;13.83;62.03;100524.00;5092962;28;20124;-71
2022/12/22 14:09:23;;;;;;;21.42;15.82;;;;;;;13.84;61.72;100519.44;5092450;28;20072;-71
2022/12/22 14:12:02;;;;;;;29.88;15.95;;;;;;;13.83;61.55;100521.28;5093497;28;20044;-72
2022/12/22 14:14:34;;;;;;;20.52;15.25;;;;;;;13.84;61.66;100519.44;5093546;28;20042;-72
2022/12/22 14:17:01;;;;;;;20.65;15.18;;;;;;;13.83;61.77;100515.88;5080105;28;20075;-71
2022/12/22 14:19:34;;;;;;;21.52;15.55;;;;;;;13.83;61.75;100518.59;5073268;28;20428;-72
2022/12/22 14:22:13;;;;;;;21.30;15.75;;;;;;;13.83;61.69;100507.78;5073360;28;20123;-71
2022/12/22 14:24:54;;;;;;;24.75;16.10;;;;;;;13.79;62.15;100509.06;5078838;28;20066;-71
2022/12/22 14:27:41;;;;;;;20.88;15.13;;;;;;;13.77;61.78;100505.66;5093483;28;20557;-72
2022/12/22 14:30:37;;;;;;;18.77;15.95;;;;;;;13.74;61.58;100508.63;5092062;28;20501;-72
2022/12/22 14:33:22;;;;;;;22.95;16.67;;;;;;;13.78;62.12;100509.19;5090566;28;20131;-72
2022/12/22 14:35:49;;;;;;;20.07;15.50;;;;;;;13.81;61.59;100514.31;5091359;28;20055;-69
2022/12/22 14:38:24;;;;;;;22.02;15.65;;;;;;;13.81;61.93;100509.78;5093401;28;20494;-73
2022/12/22 14:40:53;;;;;;;20.13;14.82;;;;;;;13.82;61.86;100500.69;5093316;28;20050;-73
2022/12/22 14:43:27;;;;;;;19.77;15.48;;;;;;;13.83;62.07;100496.13;5093032;28;20043;-75
2022/12/22 14:46:07;;;;;;;23.50;15.80;;;;;;;13.83;62.08;100494.28;5092166;28;20044;-76
2022/12/22 14:48:38;;;;;;;23.80;16.48;;;;;;;13.82;61.84;100487.19;5093503;28;20038;-76
2022/12/22 14:51:06;;;;;;;23.70;15.93;;;;;;;13.80;61.70;100472.13;5093170;28;20119;-75
2022/12/22 14:53:38;;;;;;;24.77;16.17;;;;;;;13.77;62.01;100480.50;5092879;28;20036;-74
2022/12/22 14:56:10;;;;;;;20.20;15.73;;;;;;;13.73;62.00;100470.97;5076511;28;20123;-76
2022/12/22 14:58:40;;;;;;;21.85;15.95;;;;;;;13.68;61.79;100466.84;5071966;28;20052;-74
2022/12/22 15:01:23;;;;;;;22.98;16.17;;;;;;;13.61;62.28;100465.69;5071998;28;20041;-75
2022/12/22 15:04:03;;;;;;;19.80;15.35;;;;;;;13.53;62.25;100462.81;5092842;28;20048;-73
2022/12/22 15:06:42;;;;;;;24.10;16.58;;;;;;;13.50;62.33;100475.75;5093043;28;20047;-73
2022/12/22 15:09:12;;;;;;;25.35;15.95;;;;;;;13.46;62.39;100477.00;5091981;28;20040;-74
2022/12/22 15:11:54;;;;;;;20.38;14.20;;;;;;;13.45;62.20;100478.00;5088822;28;20040;-74
2022/12/22 15:14:28;;;;;;;19.52;13.13;;;;;;;13.42;62.27;100470.16;5073124;28;20048;-74
2022/12/22 15:17:06;;;;;;;16.98;12.77;;;;;;;13.38;62.37;100468.69;5072787;28;20094;-74